Time;durP1;ratioP1;P1;durP2;ratioP2;P2;SDS_P1;SDS_P2;PMS_P1;PMS_P2;Temp;Humidity;BMP_temperature;BMP_pressure;BME280_temperature;BME280_humidity;BME280_pressure;Samples;Min_cycle;Max_cycle;Signal;HPM_P1;HPM_P2
2021/06/19 00:05:44;;;;;;;13.83;9.05;;;;;;;24.29;77.57;99224.30;4312308;81;28571;-88
2021/06/19 00:11:45;;;;;;;11.38;9.13;;;;;;;23.91;79.38;99225.59;4336988;80;28454;-86
2021/06/19 00:17:47;;;;;;;12.50;8.80;;;;;;;23.79;81.81;99217.94;4349771;80;28445;-88
2021/06/19 00:23:48;;;;;;;11.45;8.75;;;;;;;24.00;77.47;99221.50;4355285;80;28478;-82
2021/06/19 00:29:50;;;;;;;11.95;9.03;;;;;;;23.70;80.95;99220.64;4340486;80;28503;-85
2021/06/19 00:35:51;;;;;;;14.05;8.83;;;;;;;23.90;81.54;99221.23;4337883;80;28456;-84
2021/06/19 00:41:52;;;;;;;12.25;8.95;;;;;;;23.74;81.46;99213.97;4344509;80;28453;-84
2021/06/19 00:47:54;;;;;;;11.50;9.08;;;;;;;23.65;83.13;99212.56;4338450;80;28524;-84
2021/06/19 00:53:56;;;;;;;14.53;9.60;;;;;;;23.59;83.10;99202.28;4311289;80;28467;-84
2021/06/19 00:59:58;;;;;;;13.68;9.25;;;;;;;23.40;84.97;99201.10;4379037;79;28525;-84
2021/06/19 01:05:59;;;;;;;11.70;9.18;;;;;;;23.44;83.54;99202.66;4350450;80;28476;-82
2021/06/19 01:12:01;;;;;;;14.38;10.20;;;;;;;23.47;83.43;99196.53;4338477;80;28502;-86
2021/06/19 01:18:02;;;;;;;14.23;10.30;;;;;;;23.25;85.99;99203.08;4330020;81;28531;-87
2021/06/19 01:24:04;;;;;;;15.70;10.10;;;;;;;23.14;86.83;99200.34;4341294;80;28527;-86
2021/06/19 01:30:08;;;;;;;12.68;9.38;;;;;;;22.78;92.82;99196.52;4346889;80;28475;-82
2021/06/19 01:36:11;;;;;;;11.93;10.32;;;;;;;23.37;86.29;99188.81;4349973;80;28490;-85
2021/06/19 01:42:13;;;;;;;11.65;9.08;;;;;;;22.79;93.25;99189.91;4355082;80;28529;-86
2021/06/19 01:48:14;;;;;;;12.10;10.60;;;;;;;23.15;89.94;99185.52;4338603;80;28443;-85
2021/06/19 01:54:16;;;;;;;11.38;9.93;;;;;;;23.11;87.26;99184.49;4361577;80;28565;-85
2021/06/19 02:00:30;;;;;;;14.93;9.85;;;;;;;22.62;93.77;99195.23;4321925;80;28430;-84
2021/06/19 02:06:30;;;;;;;11.75;9.90;;;;;;;22.54;93.73;99198.14;4371044;80;28507;-86
2021/06/19 02:12:32;;;;;;;16.05;10.58;;;;;;;22.86;89.68;99198.25;4290854;80;28454;-83
2021/06/19 02:18:33;;;;;;;12.80;10.63;;;;;;;22.66;94.47;99194.88;4338173;80;28450;-85
2021/06/19 02:24:34;;;;;;;14.80;10.15;;;;;;;22.56;93.01;99197.27;4357794;80;28448;-86
2021/06/19 02:30:44;;;;;;;13.55;10.63;;;;;;;22.64;91.36;99197.91;4378828;80;28482;-86
2021/06/19 02:36:45;;;;;;;13.50;10.82;;;;;;;22.78;91.71;99201.17;4367768;80;28441;-85
2021/06/19 02:42:47;;;;;;;15.00;11.22;;;;;;;22.62;92.96;99196.59;4337740;80;28457;-84
2021/06/19 02:48:48;;;;;;;15.30;12.25;;;;;;;22.67;93.09;99207.45;4339882;80;28522;-84
2021/06/19 02:54:50;;;;;;;17.23;11.73;;;;;;;22.12;100.00;99203.62;4327316;80;28472;-84
2021/06/19 03:00:51;;;;;;;14.40;10.95;;;;;;;22.40;95.72;99201.69;4333427;80;28505;-84
2021/06/19 03:06:52;;;;;;;12.35;10.38;;;;;;;22.18;100.00;99199.67;4345005;80;28476;-84
2021/06/19 03:12:54;;;;;;;17.05;10.70;;;;;;;22.05;100.00;99201.86;4359351;80;28433;-84
2021/06/19 03:18:55;;;;;;;16.30;11.93;;;;;;;22.60;99.47;99213.36;4380251;80;28535;-85
2021/06/19 03:24:56;;;;;;;14.60;11.05;;;;;;;22.75;96.06;99218.24;4328266;80;28478;-88
2021/06/19 03:30:58;;;;;;;14.73;11.25;;;;;;;23.30;88.46;99215.07;4308325;81;28444;-88
2021/06/19 03:37:00;;;;;;;15.90;10.55;;;;;;;23.07;90.36;99208.19;4324222;80;28487;-86
2021/06/19 03:43:02;;;;;;;16.17;10.88;;;;;;;23.61;85.39;99213.75;4320363;80;28761;-84
2021/06/19 03:49:04;;;;;;;15.45;11.03;;;;;;;23.67;84.64;99217.16;4382774;78;28508;-86
2021/06/19 03:55:07;;;;;;;13.93;9.65;;;;;;;23.79;84.21;99223.42;4374416;79;29020;-84
2021/06/19 04:01:09;;;;;;;13.98;11.12;;;;;;;24.19;80.81;99230.91;4393899;79;28494;-86
2021/06/19 04:07:11;;;;;;;15.93;11.55;;;;;;;24.01;82.53;99232.17;4393250;79;28497;-84
2021/06/19 04:13:13;;;;;;;12.28;10.82;;;;;;;24.32;79.73;99224.48;4377162;79;28539;-86
2021/06/19 04:19:14;;;;;;;12.70;10.10;;;;;;;24.36;78.27;99219.16;4385450;80;28464;-85
2021/06/19 04:25:17;;;;;;;11.40;9.43;;;;;;;24.40;78.67;99216.59;4381084;79;28480;-82
2021/06/19 04:31:19;;;;;;;14.10;10.98;;;;;;;24.81;76.40;99212.63;4345634;80;28485;-82
2021/06/19 04:37:20;;;;;;;16.82;11.60;;;;;;;24.48;79.18;99215.80;4357143;80;28489;-84
2021/06/19 04:43:40;;;;;;;18.85;13.00;;;;;;;24.65;76.72;99217.77;4342602;80;28574;-84
2021/06/19 04:49:31;;;;;;;18.50;15.48;;;;;;;24.43;78.34;99211.81;4324319;80;28481;-85
2021/06/19 04:55:32;;;;;;;24.98;22.27;;;;;;;24.42;78.83;99206.91;4348546;80;28547;-83
2021/06/19 05:01:34;;;;;;;16.32;13.98;;;;;;;24.82;76.84;99206.55;4290699;80;28519;-83
2021/06/19 05:07:35;;;;;;;16.90;12.55;;;;;;;24.89;75.27;99202.77;4299695;80;28535;-84
2021/06/19 05:13:37;;;;;;;14.25;10.95;;;;;;;24.32;79.63;99209.95;4328702;82;28494;-84
2021/06/19 05:19:38;;;;;;;19.62;11.18;;;;;;;24.80;76.16;99217.89;4344010;81;28551;-82
2021/06/19 05:25:40;;;;;;;19.67;11.88;;;;;;;24.58;77.82;99211.92;4302700;80;28475;-83
2021/06/19 05:31:41;;;;;;;18.05;11.83;;;;;;;24.72;78.15;99212.58;4311535;80;28496;-83
2021/06/19 05:37:43;;;;;;;11.33;9.40;;;;;;;24.84;76.10;99216.69;4313501;80;28435;-84
2021/06/19 05:43:44;;;;;;;12.00;9.13;;;;;;;25.26;73.79;99204.61;4299467;80;28475;-83
2021/06/19 05:49:45;;;;;;;12.10;9.83;;;;;;;25.05;72.27;99197.03;4301125;81;28441;-83
2021/06/19 05:55:47;;;;;;;11.75;9.25;;;;;;;25.16;72.39;99210.45;4310899;80;28499;-83
2021/06/19 06:01:48;;;;;;;14.30;9.33;;;;;;;25.23;74.22;99207.99;4375818;80;28488;-81
2021/06/19 06:07:49;;;;;;;11.43;8.45;;;;;;;25.14;73.18;99205.81;4347796;81;28481;-82
2021/06/19 06:13:51;;;;;;;14.55;9.95;;;;;;;25.76;71.43;99210.66;4346184;81;28461;-81
2021/06/19 06:19:54;;;;;;;11.57;9.58;;;;;;;25.41;72.61;99212.10;4371518;81;28422;-80
2021/06/19 06:25:58;;;;;;;10.68;7.87;;;;;;;25.55;70.56;99206.44;4347133;80;28478;-84
2021/06/19 06:31:59;;;;;;;12.80;8.40;;;;;;;25.74;69.79;99209.63;4335641;80;28602;-82
2021/06/19 06:38:01;;;;;;;10.43;8.40;;;;;;;25.84;68.59;99200.19;4376270;78;28617;-80
2021/06/19 06:44:06;;;;;;;12.63;8.50;;;;;;;25.97;69.29;99207.99;4331754;80;28569;-82
2021/06/19 06:50:10;;;;;;;9.93;7.37;;;;;;;26.16;68.28;99213.08;4339821;80;28515;-90
2021/06/19 06:56:12;;;;;;;13.08;7.78;;;;;;;26.41;65.27;99216.08;4316585;80;28477;-83
2021/06/19 07:02:13;;;;;;;12.90;7.10;;;;;;;26.25;64.85;99215.84;4335588;80;28539;-84
2021/06/19 07:08:14;;;;;;;7.75;6.78;;;;;;;26.61;65.12;99218.38;4322678;80;28452;-84
2021/06/19 07:14:16;;;;;;;9.23;7.22;;;;;;;26.58;63.50;99219.28;4361868;80;28494;-81
2021/06/19 07:20:18;;;;;;;8.63;6.42;;;;;;;26.75;64.05;99216.73;4334117;80;28567;-83
2021/06/19 07:26:19;;;;;;;11.20;7.47;;;;;;;26.89;62.24;99215.92;4338116;78;28466;-82
2021/06/19 07:32:21;;;;;;;11.38;7.97;;;;;;;27.09;63.85;99219.00;4340504;81;28478;-84
2021/06/19 07:38:22;;;;;;;9.33;8.10;;;;;;;26.82;64.30;99221.16;4336934;80;28488;-83
2021/06/19 07:44:24;;;;;;;11.00;7.97;;;;;;;26.93;64.32;99225.70;4359630;79;28473;-83
2021/06/19 07:50:26;;;;;;;10.90;7.97;;;;;;;27.60;63.32;99206.45;4362926;80;28444;-85
2021/06/19 07:56:28;;;;;;;9.15;7.92;;;;;;;26.95;66.14;99215.96;4371165;80;28464;-83
2021/06/19 08:02:31;;;;;;;14.20;8.33;;;;;;;27.24;64.99;99207.35;4355205;80;28426;-84
2021/06/19 08:08:32;;;;;;;10.98;8.35;;;;;;;27.30;66.86;99205.75;4367639;79;28515;-84
2021/06/19 08:14:33;;;;;;;7.22;6.53;;;;;;;27.64;63.78;99193.56;4365362;80;28507;-84
2021/06/19 08:20:35;;;;;;;8.85;6.47;;;;;;;28.04;63.48;99189.33;4365849;80;28891;-87
2021/06/19 08:26:39;;;;;;;9.25;6.47;;;;;;;28.28;61.82;99192.45;4373496;80;28515;-82
2021/06/19 08:32:40;;;;;;;6.40;5.67;;;;;;;28.44;63.12;99184.26;4366706;80;28532;-82
2021/06/19 08:38:42;;;;;;;10.50;5.00;;;;;;;28.41;62.94;99183.58;4353589;80;28465;-84
2021/06/19 08:44:45;;;;;;;5.30;4.45;;;;;;;28.51;59.24;99181.12;4347883;79;28486;-83
2021/06/19 08:50:47;;;;;;;5.60;4.85;;;;;;;28.75;58.87;99169.78;4337871;80;28619;-83
2021/06/19 08:56:50;;;;;;;6.65;4.40;;;;;;;28.50;56.58;99167.67;4310544;79;28535;-82
2021/06/19 09:02:52;;;;;;;5.83;4.70;;;;;;;28.57;54.99;99165.09;4358958;80;28511;-85
2021/06/19 09:09:16;;;;;;;5.42;4.40;;;;;;;28.69;53.97;99158.73;4293852;81;28449;-82
2021/06/19 09:15:18;;;;;;;6.03;4.30;;;;;;;29.28;53.71;99155.05;4287158;81;28569;-85
2021/06/19 09:21:27;;;;;;;5.37;4.15;;;;;;;29.15;52.39;99152.92;4297336;81;28559;-84
2021/06/19 09:27:38;;;;;;;6.15;3.90;;;;;;;29.52;51.49;99146.39;4323207;78;28896;-84
2021/06/19 09:33:40;;;;;;;3.67;3.37;;;;;;;29.80;48.58;99162.12;4397539;78;28569;-84
2021/06/19 09:39:42;;;;;;;5.72;3.58;;;;;;;29.92;48.34;99143.19;4397368;78;28530;-84
2021/06/19 09:46:08;;;;;;;3.95;3.10;;;;;;;29.61;46.86;99151.17;4393177;78;28464;-85
2021/06/19 09:52:11;;;;;;;4.47;3.45;;;;;;;30.25;44.01;99146.17;4398594;78;28554;-85
2021/06/19 09:58:17;;;;;;;3.87;3.20;;;;;;;30.56;42.96;99144.42;4416626;78;28540;-88
2021/06/19 10:04:21;;;;;;;5.37;3.58;;;;;;;30.58;42.18;99135.18;4384037;78;28535;-84
2021/06/19 10:10:24;;;;;;;4.28;3.40;;;;;;;30.56;42.14;99127.78;4400889;78;28470;-83
2021/06/19 10:16:28;;;;;;;5.00;3.45;;;;;;;30.82;40.32;99141.63;4409626;78;28456;-87
2021/06/19 10:22:32;;;;;;;4.75;3.75;;;;;;;30.77;41.22;99132.80;4406677;78;28463;-85
2021/06/19 10:28:38;;;;;;;5.65;3.45;;;;;;;31.21;41.86;99124.70;4415733;78;28540;-85
2021/06/19 10:34:45;;;;;;;6.37;3.50;;;;;;;31.33;41.48;99120.38;4415922;78;28499;-85
2021/06/19 10:41:00;;;;;;;5.20;3.45;;;;;;;30.53;42.73;99127.13;4416243;78;28472;-84
2021/06/19 10:47:02;;;;;;;6.75;3.58;;;;;;;30.99;42.20;99124.31;4403116;78;28580;-84
2021/06/19 10:53:17;;;;;;;4.58;3.20;;;;;;;31.02;43.13;99118.80;4400495;79;28449;-84
2021/06/19 10:59:32;;;;;;;4.22;3.37;;;;;;;31.28;42.92;99102.63;4408105;78;28594;-82
2021/06/19 11:05:53;;;;;;;5.47;3.80;;;;;;;31.82;43.03;99093.02;4395063;78;28522;-86
2021/06/19 11:12:02;;;;;;;4.25;3.50;;;;;;;31.14;43.68;99092.85;4419610;78;28492;-85
2021/06/19 11:18:03;;;;;;;4.83;3.67;;;;;;;31.59;42.37;99078.53;4407128;78;28530;-83
2021/06/19 11:24:09;;;;;;;4.03;3.60;;;;;;;31.37;42.82;99076.80;4417099;78;28484;-84
2021/06/19 11:30:36;;;;;;;4.90;3.30;;;;;;;31.57;41.46;99062.83;4429676;78;28532;-84
2021/06/19 11:36:39;;;;;;;5.85;3.67;;;;;;;31.61;42.21;99062.31;4424760;78;28467;-85
2021/06/19 11:42:43;;;;;;;6.22;3.60;;;;;;;31.50;41.41;99065.48;4419270;78;28453;-85
2021/06/19 11:54:52;;;;;;;6.37;3.58;;;;;;;31.64;42.25;99044.89;4577509;75;86563;-85
2021/06/19 12:00:56;;;;;;;6.65;3.50;;;;;;;32.06;40.66;99046.48;4513978;77;28553;-84
2021/06/19 12:07:01;;;;;;;5.25;3.80;;;;;;;32.25;42.03;99035.22;4493131;77;28474;-84
2021/06/19 12:13:07;;;;;;;6.37;3.50;;;;;;;32.33;40.22;99036.67;4503857;77;28636;-84
2021/06/19 12:19:08;;;;;;;6.30;3.80;;;;;;;32.33;40.44;99036.09;4490747;77;28524;-83
2021/06/19 12:25:14;;;;;;;7.35;3.50;;;;;;;32.16;40.48;99033.89;4511541;77;28514;-84
2021/06/19 12:31:19;;;;;;;7.57;3.83;;;;;;;32.53;39.72;99031.17;4495139;77;28557;-83
2021/06/19 12:37:24;;;;;;;7.00;4.08;;;;;;;32.50;39.46;99029.16;4492047;77;28483;-83
2021/06/19 12:43:27;;;;;;;4.73;4.13;;;;;;;32.25;40.34;99033.02;4413270;78;28457;-83
2021/06/19 12:49:29;;;;;;;5.53;3.67;;;;;;;32.28;39.65;99025.29;4328396;80;28512;-84
2021/06/19 12:55:34;;;;;;;5.95;4.10;;;;;;;32.33;39.03;99022.77;4354552;80;28507;-83
2021/06/19 13:01:35;;;;;;;4.42;3.72;;;;;;;32.28;39.96;99018.34;4401645;78;28522;-83
2021/06/19 13:07:37;;;;;;;5.85;3.65;;;;;;;32.08;38.92;99007.98;4359193;80;28460;-82
2021/06/19 13:13:42;;;;;;;5.95;4.20;;;;;;;32.45;39.78;99005.88;4353208;80;28554;-82
2021/06/19 13:19:45;;;;;;;4.28;3.37;;;;;;;32.19;40.57;99001.17;4406671;78;28541;-81
2021/06/19 13:25:57;;;;;;;5.25;3.80;;;;;;;32.56;39.39;99007.36;4421037;78;28441;-81
2021/06/19 13:32:01;;;;;;;4.30;3.65;;;;;;;32.76;40.04;98997.42;4396340;78;28508;-82
2021/06/19 13:38:03;;;;;;;6.25;3.80;;;;;;;32.86;39.79;99001.50;4369868;80;28518;-82
2021/06/19 13:44:05;;;;;;;4.80;3.42;;;;;;;32.89;39.58;98993.77;4318255;80;28583;-82
2021/06/19 13:50:09;;;;;;;7.37;3.72;;;;;;;32.74;38.15;98994.23;4336921;80;28508;-82
2021/06/19 13:56:10;;;;;;;4.67;3.72;;;;;;;32.89;40.09;98995.16;4336805;80;28466;-82
2021/06/19 14:02:13;;;;;;;6.17;4.00;;;;;;;32.80;40.58;98992.09;4336068;81;28520;-82
2021/06/19 14:08:14;;;;;;;4.90;3.55;;;;;;;32.63;39.21;98992.72;4327395;80;28529;-82
2021/06/19 14:14:15;;;;;;;6.42;4.08;;;;;;;32.84;39.24;98981.00;4331078;81;28500;-83
2021/06/19 14:20:17;;;;;;;4.97;3.37;;;;;;;33.17;39.17;98963.20;4318552;80;28450;-83
2021/06/19 14:26:25;;;;;;;4.78;3.42;;;;;;;33.18;38.66;98957.84;4319104;80;28478;-82
2021/06/19 14:32:28;;;;;;;3.87;3.00;;;;;;;33.56;37.59;98953.52;4361799;80;28516;-82
2021/06/19 14:38:28;;;;;;;5.25;3.80;;;;;;;33.47;38.23;98947.70;4352430;80;28509;-81
2021/06/19 14:44:30;;;;;;;5.12;3.12;;;;;;;33.22;37.40;98946.12;4336026;80;28525;-82
2021/06/19 14:50:31;;;;;;;4.47;3.47;;;;;;;33.22;37.61;98940.55;4321983;80;28508;-83
2021/06/19 14:56:32;;;;;;;3.85;3.20;;;;;;;33.19;37.58;98946.30;4335370;80;28496;-83
2021/06/19 15:02:34;;;;;;;8.28;3.55;;;;;;;33.33;37.74;98944.20;4350570;80;28515;-83
2021/06/19 15:08:36;;;;;;;4.83;3.25;;;;;;;33.19;37.10;98943.51;4430240;78;28522;-82
2021/06/19 15:14:37;;;;;;;5.53;3.60;;;;;;;33.21;37.57;98940.34;4416782;78;28449;-83
2021/06/19 15:20:39;;;;;;;4.45;3.33;;;;;;;33.28;36.92;98923.69;4420752;78;28461;-82
2021/06/19 15:26:40;;;;;;;4.95;3.87;;;;;;;33.18;37.08;98923.81;4420996;78;28472;-82
2021/06/19 15:32:43;;;;;;;4.10;3.33;;;;;;;33.32;37.23;98923.11;4419079;78;28555;-82
2021/06/19 15:38:47;;;;;;;7.17;3.77;;;;;;;33.36;37.20;98923.12;4365575;80;28510;-82
2021/06/19 15:44:48;;;;;;;7.90;3.65;;;;;;;33.25;37.44;98921.66;4349054;80;28444;-82
2021/06/19 15:50:50;;;;;;;5.62;3.50;;;;;;;33.28;37.61;98913.94;4407525;78;28509;-82
2021/06/19 15:56:51;;;;;;;7.95;3.90;;;;;;;33.25;37.86;98916.09;4371978;79;28474;-82
2021/06/19 16:02:52;;;;;;;6.47;3.35;;;;;;;33.33;37.74;98925.31;4377671;79;28500;-83
2021/06/19 16:08:53;;;;;;;5.40;3.92;;;;;;;33.40;38.49;98920.38;4370999;79;28487;-83
2021/06/19 16:14:55;;;;;;;5.78;3.20;;;;;;;33.43;38.28;98920.40;4367217;79;28512;-82
2021/06/19 16:20:56;;;;;;;6.05;3.72;;;;;;;34.14;36.96;98918.34;4382396;79;28523;-82
2021/06/19 16:26:59;;;;;;;6.37;3.35;;;;;;;33.56;36.72;98908.33;4365254;79;28454;-81
2021/06/19 16:33:00;;;;;;;6.10;3.45;;;;;;;34.02;36.22;98901.36;4373644;79;28520;-83
2021/06/19 16:39:03;;;;;;;4.17;3.62;;;;;;;34.16;35.89;98907.58;4378293;79;28505;-83
2021/06/19 16:45:06;;;;;;;7.80;3.30;;;;;;;34.08;35.79;98914.33;4364187;79;28502;-86
2021/06/19 16:51:08;;;;;;;6.40;3.42;;;;;;;34.20;35.80;98913.95;4349172;79;28483;-88
2021/06/19 16:57:09;;;;;;;5.00;3.42;;;;;;;34.48;35.42;98906.05;4369918;79;28501;-91
2021/06/19 17:03:10;;;;;;;5.78;3.30;;;;;;;34.82;34.49;98903.47;4346179;79;28420;-82
2021/06/19 17:09:12;;;;;;;5.42;3.25;;;;;;;35.43;33.53;98905.38;4353603;79;28461;-82
2021/06/19 17:15:16;;;;;;;5.25;3.55;;;;;;;35.55;33.43;98922.36;4369963;79;28495;-84
2021/06/19 17:21:18;;;;;;;5.28;3.30;;;;;;;35.22;33.14;98932.18;4348604;79;28498;-85
2021/06/19 17:27:19;;;;;;;7.78;3.30;;;;;;;34.94;32.81;98946.37;4346922;79;28542;-84
2021/06/19 17:33:20;;;;;;;5.10;3.65;;;;;;;34.94;32.81;98946.37;4342756;79;28533;-84
2021/06/19 17:39:22;;;;;;;5.58;3.50;;;;;;;35.49;33.09;98951.88;4364689;79;28432;-84
2021/06/19 17:45:23;;;;;;;5.58;2.95;;;;;;;35.49;33.09;98951.88;4380567;79;28444;-88
2021/06/19 17:51:26;;;;;;;5.17;3.00;;;;;;;35.38;32.88;98949.13;4329335;79;28526;-89
2021/06/19 17:57:27;;;;;;;5.12;3.20;;;;;;;35.98;32.12;98950.73;4349809;79;28553;-89
2021/06/19 18:03:29;;;;;;;7.08;3.37;;;;;;;35.32;33.11;98944.55;4361362;79;28439;-87
2021/06/19 18:09:31;;;;;;;7.65;4.90;;;;;;;36.08;32.15;98938.72;4350015;79;28501;-85
2021/06/19 18:15:32;;;;;;;7.20;3.20;;;;;;;35.99;32.18;98936.96;4352493;79;28531;-87
2021/06/19 18:21:34;;;;;;;4.15;3.00;;;;;;;34.74;33.95;98925.83;4379360;79;28476;-88
2021/06/19 18:27:38;;;;;;;5.55;3.50;;;;;;;35.10;33.65;98927.02;4380659;79;28445;-86
2021/06/19 18:33:38;;;;;;;4.28;3.20;;;;;;;33.91;35.63;98931.98;4414531;80;28453;-86
2021/06/19 18:39:39;;;;;;;5.35;3.62;;;;;;;33.25;36.78;98918.87;4372199;80;28475;-86
2021/06/19 18:45:41;;;;;;;6.55;4.33;;;;;;;32.67;37.96;98928.95;4365010;80;28469;-85
2021/06/19 18:51:42;;;;;;;6.83;4.25;;;;;;;32.42;38.33;98941.84;4408793;79;28491;-86
2021/06/19 18:57:52;;;;;;;7.62;4.90;;;;;;;32.12;38.97;98943.47;4375302;79;28653;-85
2021/06/19 19:03:53;;;;;;;5.40;4.10;;;;;;;31.77;39.80;98946.83;4360007;80;28498;-86
2021/06/19 19:09:55;;;;;;;7.42;4.50;;;;;;;31.46;40.79;98960.48;4370589;80;28476;-84
2021/06/19 19:15:56;;;;;;;6.55;4.42;;;;;;;31.31;41.53;98947.78;4411269;80;28441;-86
2021/06/19 19:21:58;;;;;;;7.35;5.20;;;;;;;30.92;42.47;98946.55;4434878;80;28450;-84
2021/06/19 19:28:08;;;;;;;6.08;4.87;;;;;;;30.61;43.82;98944.42;4398641;79;28482;-86
2021/06/19 19:34:11;;;;;;;6.70;4.83;;;;;;;30.45;44.11;98950.65;4385232;79;28482;-84
2021/06/19 19:40:13;;;;;;;8.30;4.92;;;;;;;30.21;44.96;98957.34;4397539;79;28437;-84
2021/06/19 19:46:14;;;;;;;12.78;9.25;;;;;;;30.13;45.02;98960.54;4378721;79;28472;-84
2021/06/19 19:52:15;;;;;;;8.23;6.40;;;;;;;30.04;45.43;98962.13;4393827;79;28574;-84
2021/06/19 19:58:17;;;;;;;6.78;4.97;;;;;;;29.88;46.24;98955.27;4374125;80;28495;-84
2021/06/19 20:04:18;;;;;;;7.83;4.78;;;;;;;29.54;47.58;98951.58;4374493;80;28523;-84
2021/06/19 20:10:21;;;;;;;10.10;5.12;;;;;;;29.52;48.29;98955.30;4375830;80;28562;-84
2021/06/19 20:16:23;;;;;;;6.67;4.92;;;;;;;29.33;48.93;98940.20;4367610;80;28466;-85
2021/06/19 20:22:24;;;;;;;7.72;5.22;;;;;;;29.30;49.05;98948.43;4367622;80;28508;-84
2021/06/19 20:28:29;;;;;;;8.10;6.30;;;;;;;28.91;50.87;98959.59;4399491;80;28462;-85
2021/06/19 20:34:31;;;;;;;9.18;5.45;;;;;;;28.78;51.98;98966.33;4401118;80;28521;-85
2021/06/19 20:40:35;;;;;;;9.28;5.78;;;;;;;28.86;52.06;98960.45;4441209;80;28487;-84
2021/06/19 20:46:36;;;;;;;10.68;6.30;;;;;;;28.74;52.34;98955.77;4373916;80;28491;-84
2021/06/19 20:52:41;;;;;;;10.82;6.65;;;;;;;28.52;53.55;98962.12;4328155;80;28464;-84
2021/06/19 20:58:42;;;;;;;7.65;5.78;;;;;;;28.31;54.43;98963.14;4327109;80;28542;-84
2021/06/19 21:04:44;;;;;;;8.00;5.40;;;;;;;28.43;53.86;98956.76;4353062;80;28425;-83
2021/06/19 21:10:46;;;;;;;9.73;6.40;;;;;;;28.28;54.74;98969.39;4382379;80;28560;-83
2021/06/19 21:16:47;;;;;;;8.73;7.00;;;;;;;27.94;56.71;98971.53;4386801;80;28430;-85
2021/06/19 21:22:50;;;;;;;9.83;6.90;;;;;;;27.75;58.37;98988.73;4368027;81;28472;-83
2021/06/19 21:28:51;;;;;;;8.65;6.87;;;;;;;27.53;59.86;98990.81;4352661;80;28480;-83
2021/06/19 21:34:53;;;;;;;10.58;6.62;;;;;;;27.42;60.14;98983.00;4336774;80;28513;-83
2021/06/19 21:40:54;;;;;;;9.20;6.65;;;;;;;27.22;62.15;98971.51;4349861;80;28424;-82
2021/06/19 21:46:55;;;;;;;9.88;6.87;;;;;;;27.28;60.81;98975.62;4347443;80;28435;-83
2021/06/19 21:52:57;;;;;;;10.40;7.28;;;;;;;27.06;63.37;98976.91;4325502;81;28445;-83
2021/06/19 21:58:58;;;;;;;12.73;6.25;;;;;;;26.67;64.70;98972.45;4356173;80;28482;-84
2021/06/19 22:04:59;;;;;;;13.48;7.35;;;;;;;26.64;65.38;98983.34;4338040;81;28442;-85
2021/06/19 22:11:01;;;;;;;13.30;6.80;;;;;;;26.81;63.23;98982.34;4394407;78;28531;-86
2021/06/19 22:17:04;;;;;;;9.70;6.30;;;;;;;26.34;67.75;98995.87;4382555;80;28477;-82
2021/06/19 22:23:05;;;;;;;11.30;6.72;;;;;;;26.29;68.67;98995.52;4388718;78;28445;-84
2021/06/19 22:29:08;;;;;;;11.70;7.28;;;;;;;26.28;67.74;98984.26;4407679;79;28460;-82
2021/06/19 22:35:13;;;;;;;12.60;6.67;;;;;;;26.18;70.13;98982.13;4386058;78;28534;-82
2021/06/19 22:41:15;;;;;;;10.20;6.57;;;;;;;26.18;69.73;98977.98;4338910;80;28497;-83
2021/06/19 22:47:18;;;;;;;8.23;6.62;;;;;;;26.12;69.80;98974.41;4393107;78;32328;-83
2021/06/19 22:53:20;;;;;;;9.73;7.33;;;;;;;26.21;69.06;98977.13;4412214;78;28461;-82
2021/06/19 22:59:22;;;;;;;9.38;6.20;;;;;;;25.93;71.04;98971.58;4422145;78;28463;-82
2021/06/19 23:05:23;;;;;;;14.73;6.87;;;;;;;25.96;69.36;98975.03;4422270;78;28471;-82
2021/06/19 23:11:25;;;;;;;8.90;7.30;;;;;;;25.66;71.27;98970.13;4444287;78;28496;-81
2021/06/19 23:17:26;;;;;;;7.42;5.85;;;;;;;25.42;73.15;98974.31;4439880;79;28479;-83
2021/06/19 23:23:27;;;;;;;10.75;6.17;;;;;;;25.43;72.45;98975.36;4420198;78;28468;-84
2021/06/19 23:29:29;;;;;;;8.83;6.55;;;;;;;25.81;70.17;98965.98;4434872;79;28472;-83
2021/06/19 23:35:30;;;;;;;7.95;5.87;;;;;;;25.19;74.21;98958.88;4443701;78;28500;-83
2021/06/19 23:41:32;;;;;;;7.67;6.22;;;;;;;25.10;75.01;98962.27;4417999;78;28509;-82
2021/06/19 23:47:33;;;;;;;7.53;6.17;;;;;;;24.88;77.05;98956.45;4388978;79;28511;-83
2021/06/19 23:53:34;;;;;;;11.65;6.22;;;;;;;25.01;75.22;98965.03;4401659;78;28538;-84
2021/06/19 23:59:36;;;;;;;9.08;6.25;;;;;;;24.74;77.71;98966.23;4409587;78;28500;-85
